Flight Track Log - Related Links

Times and Time Zones

All times are in EDT time to prevent confusion due to time zone crossing. See the LYM1725 flight status page for this flight to view local times or setup timezone preferences in your user account.

Time Position Orientation Groundspeed Altitude Reporting Facility
EDT Latitude Longitude Course Direction KTS MPH feet Rate Location/Type
Sat 10:05:23 AM 41.3614 -105.7569 312° West 189 217 10,200  Level Denver Center
Sat 10:06:24 AM 41.3961 -105.8053 314° West 190 219 11,500 1,230 Climbing Denver Center
Sat 10:07:25 AM 41.4300 -105.8489 316° Northwest 184 212 12,700 1,328 Climbing Denver Center
Sat 10:08:26 AM 41.4611 -105.8958 311° West 181 208 14,200 1,082 Climbing Denver Center
Sat 10:09:27 AM 41.4964 -105.9567 308° West 183 211 14,900 787 Climbing Denver Center
Sat 10:10:00 AM 41.5438 -106.0407 312° West  Level FlightAware Approximate
Sat 10:10:28 AM 41.5275 -106.0069 310° West 183 211 15,800  Level Denver Center
Sat 10:11:29 AM 41.5633 -106.0675 308° West 186 214 16,600 732 Climbing Denver Center
Sat 10:12:31 AM 41.5964 -106.1158 312° West 183 211 17,300 683 Climbing Denver Center
Sat 10:13:32 AM 41.6272 -106.1636 311° West 180 207 18,000 344 Climbing Denver Center
Sat 10:14:33 AM 41.6656 -106.2261 309° West 191 220 18,000  Level Denver Center
Sat 10:15:35 AM 41.7014 -106.2828 310° West 204 235 18,000  Level Denver Center
Sat 10:16:36 AM 41.7481 -106.3528 312° West 221 254 18,000  Level Denver Center
Sat 10:17:37 AM 41.7919 -106.4131 314° West 232 267 18,000  Level Denver Center
Sat 10:18:39 AM 41.8317 -106.4758 310° West 232 267 18,000  Level Denver Center
Sat 10:19:40 AM 41.8756 -106.5453 310° West 230 265 18,000  Level Denver Center
Sat 10:20:41 AM 41.9167 -106.6081 311° West 232 267 18,000 49 Level Denver Center
Sat 10:21:43 AM 41.9661 -106.6800 313° West 235 270 18,100 49 Climbing Denver Center
Sat 10:22:44 AM 42.0050 -106.7450 309° West 233 268 18,100  Level Denver Center
Sat 10:23:46 AM 42.0528 -106.8189 311° West 234 269 18,100 -49 Level Denver Center
Sat 10:24:47 AM 42.0931 -106.8828 310° West 233 268 18,000  Descending Denver Center
Sat 10:25:49 AM 42.1408 -106.9572 311° West 234 269 18,100  Climbing Denver Center
Sat 10:26:50 AM 42.1797 -107.0239 308° West 236 272 18,000 -49 Descending Denver Center
Sat 10:27:52 AM 42.2197 -107.0892 310° West 236 272 18,000  Level Denver Center
Sat 10:28:53 AM 42.2678 -107.1614 312° West 233 268 18,000  Level Denver Center
Sat 10:29:55 AM 42.3042 -107.2283 306° West 232 267 18,000  Level Denver Center
Sat 10:30:56 AM 42.3514 -107.3025 311° West 233 268 18,000  Level Denver Center
Sat 10:31:58 AM 42.3942 -107.3650 313° West 235 270 18,000  Level Denver Center
Sat 10:32:43 AM 42.4267 -107.4197 309° West 237 273 18,000 57 Level Salt Lake Center
Sat 10:33:44 AM 42.4694 -107.4800 314° West 235 270 18,100 -197 Climbing Salt Lake Center
Sat 10:34:45 AM 42.5208 -107.5578 312° West 243 280 17,600 -488 Descending Salt Lake Center
Sat 10:35:47 AM 42.5644 -107.6292 310° West 254 292 17,100 -780 Descending Salt Lake Center
Sat 10:36:48 AM 42.6119 -107.7028 311° West 265 305 16,000 -1,122 Descending Salt Lake Center
Sat 10:37:50 AM 42.6647 -107.7900 309° West 268 308 14,800 -927 Descending Salt Lake Center
Sat 10:38:51 AM 42.7108 -107.8669 309° West 273 314 14,100 -738 Descending Salt Lake Center
Sat 10:39:52 AM 42.7639 -107.9522 310° West 268 308 13,300 -878 Descending Salt Lake Center
Sat 10:40:54 AM 42.8092 -108.0222 311° West 262 302 12,300 -1,073 Descending Salt Lake Center
Sat 10:41:55 AM 42.8583 -108.0900 315° West 262 302 11,100 -1,180 Descending Salt Lake Center

Login

Don't have an account? Register now (free) for customized features, flight alerts, and more!